KCMX/CMX METAR and TAF weather

Enter ICAO airport designator
Station Type Date Time Source
KCMX METAR 2020/07/12 05:53 UTC NOAA

KCMX 120553Z AUTO 33004KT 10SM CLR 16/12 A2991 RMK AO2 SLP125 T01560122 10217 20156 58001


Station Type Date Time Source
KCMX Decoded METAR 2020/07/12 05:53 UTC NOAA

HANCOCK HOUGHTON CTY. MEMO, MI, United States (KCMX) 47-10N 088-29W 326M
Jul 12, 2020 - 01:53 AM EDT / 2020.07.12 0553 UTC
Wind: from the NNW (330 degrees) at 5 MPH (4 KT):0
Visibility: 10 mile(s):0
Sky conditions: clear
Temperature: 60.1 F (15.6 C)
Dew Point: 54.0 F (12.2 C)
Relative Humidity: 80%
Pressure (altimeter): 29.91 in. Hg (1012 hPa)
Pressure tendency: 0.00 inches (0.1 hPa) lower than three hours ago
ob: KCMX 120553Z AUTO 33004KT 10SM CLR 16/12 A2991 RMK AO2 SLP125 T01560122 10217 20156 58001
cycle: 6

Station Type Date Time Source
KCMX TAF 2020/07/12 06:22 UTC NOAA

TAF KCMX 120520Z 1206/1306 36006KT P6SM SCT060
FM120900 33006KT P6SM SCT090

Example: see airport list